createdAt,value
2022-12-19T00:01:36.987Z,22.03
2022-12-19T00:04:08.144Z,21.90
2022-12-19T00:06:37.335Z,24.00
2022-12-19T00:09:05.281Z,20.17
2022-12-19T00:11:32.916Z,24.93
2022-12-19T00:14:02.461Z,25.63
2022-12-19T00:16:30.267Z,20.63
2022-12-19T00:19:01.536Z,22.87
2022-12-19T00:21:34.703Z,24.87
2022-12-19T00:24:03.275Z,22.07
2022-12-19T00:26:34.670Z,22.27
2022-12-19T00:29:13.898Z,27.47
2022-12-19T00:31:41.102Z,22.10
2022-12-19T00:34:08.285Z,24.33
2022-12-19T00:36:35.556Z,20.17
2022-12-19T00:39:08.139Z,23.03
2022-12-19T00:41:37.080Z,19.43
2022-12-19T00:44:10.252Z,24.57
2022-12-19T00:46:37.407Z,19.37
2022-12-19T00:49:05.053Z,20.83
2022-12-19T00:51:34.670Z,17.83
2022-12-19T00:54:03.092Z,25.30
2022-12-19T00:56:37.762Z,23.10
2022-12-19T00:59:07.220Z,21.60
2022-12-19T01:01:36.705Z,21.90
2022-12-19T01:04:27.740Z,25.93
2022-12-19T01:06:52.168Z,20.07
2022-12-19T01:09:24.542Z,23.73
2022-12-19T01:12:09.694Z,26.53
2022-12-19T01:14:36.784Z,19.87
2022-12-19T01:17:03.916Z,22.70
2022-12-19T01:19:30.958Z,18.13
2022-12-19T01:21:58.053Z,27.40
2022-12-19T01:24:26.018Z,23.87
2022-12-19T01:26:53.108Z,21.43
2022-12-19T01:29:20.185Z,25.40
2022-12-19T01:31:47.857Z,28.27
2022-12-19T01:34:14.982Z,27.13
2022-12-19T01:36:42.023Z,20.53
2022-12-19T01:39:09.117Z,23.73
2022-12-19T01:41:36.258Z,25.73
2022-12-19T01:44:08.421Z,22.80
2022-12-19T01:46:45.743Z,27.23
2022-12-19T01:49:31.979Z,30.90
2022-12-19T01:52:10.351Z,20.20
2022-12-19T01:54:43.672Z,25.60
2022-12-19T01:57:14.163Z,18.37
2022-12-19T01:59:41.381Z,23.40
2022-12-19T02:02:13.165Z,24.40
2022-12-19T02:04:41.739Z,24.37
2022-12-19T02:07:15.601Z,28.20
2022-12-19T02:09:45.666Z,24.17
2022-12-19T02:12:13.316Z,26.03
2022-12-19T02:14:41.123Z,25.67
2022-12-19T02:17:28.620Z,26.57
2022-12-19T02:20:15.433Z,27.37
2022-12-19T02:22:53.924Z,22.97
2022-12-19T02:25:42.875Z,24.03
2022-12-19T02:28:40.442Z,23.50
2022-12-19T02:31:17.710Z,27.57
2022-12-19T02:34:09.545Z,26.70
2022-12-19T02:37:18.667Z,22.40
2022-12-19T02:39:52.374Z,23.37
2022-12-19T02:42:31.991Z,30.80
2022-12-19T02:45:02.397Z,24.70
2022-12-19T02:47:32.353Z,27.93
2022-12-19T02:50:00.904Z,22.00
2022-12-19T02:52:27.949Z,21.20
2022-12-19T02:54:59.026Z,24.00
2022-12-19T02:57:33.578Z,29.97
2022-12-19T03:00:00.790Z,21.07
2022-12-19T03:02:30.737Z,24.50
2022-12-19T03:05:12.282Z,26.03
2022-12-19T03:07:57.191Z,22.17
2022-12-19T03:10:54.450Z,26.23
2022-12-19T03:13:34.332Z,20.33
2022-12-19T03:16:03.304Z,21.90
2022-12-19T03:18:32.169Z,20.23
2022-12-19T03:21:04.541Z,25.80
2022-12-19T03:23:31.818Z,25.13
2022-12-19T03:26:06.533Z,23.63
2022-12-19T03:28:46.691Z,23.50
2022-12-19T03:31:16.851Z,24.93
2022-12-19T03:33:45.197Z,29.67
2022-12-19T03:36:18.063Z,27.70
2022-12-19T03:38:46.390Z,21.10
2022-12-19T03:41:15.758Z,24.57
2022-12-19T03:43:43.938Z,22.17
2022-12-19T03:46:20.172Z,23.10
2022-12-19T03:48:49.853Z,24.30
2022-12-19T03:51:54.888Z,24.13
2022-12-19T03:54:32.774Z,27.10
2022-12-19T03:57:26.746Z,22.60
2022-12-19T04:00:04.455Z,24.27
2022-12-19T04:02:42.577Z,19.07
2022-12-19T04:05:12.783Z,26.40
2022-12-19T04:07:41.302Z,25.80
2022-12-19T04:10:12.046Z,22.73
2022-12-19T04:12:45.606Z,25.70
2022-12-19T04:15:12.897Z,24.80
2022-12-19T04:17:44.754Z,21.23
2022-12-19T04:20:13.987Z,24.07
2022-12-19T04:22:55.959Z,26.20
2022-12-19T04:25:29.727Z,21.67
2022-12-19T04:28:03.965Z,29.10
2022-12-19T04:30:36.476Z,23.47
2022-12-19T04:33:04.374Z,22.50
2022-12-19T04:35:31.875Z,22.40
2022-12-19T04:37:59.040Z,25.47
2022-12-19T04:40:26.076Z,29.10
2022-12-19T04:42:53.137Z,23.80
2022-12-19T04:45:20.194Z,22.63
2022-12-19T04:47:47.617Z,23.97
2022-12-19T04:50:14.788Z,28.33
2022-12-19T04:52:41.844Z,25.97
2022-12-19T04:55:09.114Z,25.60
2022-12-19T04:57:36.166Z,23.53
2022-12-19T05:00:08.582Z,21.87
2022-12-19T05:02:37.532Z,24.73
2022-12-19T05:05:04.875Z,29.60
2022-12-19T05:07:31.923Z,20.87
2022-12-19T05:09:58.978Z,22.27
2022-12-19T05:12:26.090Z,23.43
2022-12-19T05:14:53.133Z,25.73
2022-12-19T05:17:20.202Z,23.67
2022-12-19T05:19:47.368Z,24.77
2022-12-19T05:22:14.435Z,28.20
2022-12-19T05:24:41.498Z,24.10
2022-12-19T05:27:08.599Z,24.80
2022-12-19T05:29:35.699Z,23.20
2022-12-19T05:32:02.774Z,21.67
2022-12-19T05:34:29.847Z,26.43
2022-12-19T05:36:56.955Z,28.87
2022-12-19T05:39:24.590Z,26.00
2022-12-19T05:41:51.663Z,23.53
2022-12-19T05:44:18.740Z,24.37
2022-12-19T05:46:45.549Z,23.73
2022-12-19T05:49:12.644Z,22.83
2022-12-19T05:51:40.233Z,23.87
2022-12-19T05:54:07.302Z,26.43
2022-12-19T05:56:34.344Z,26.90
2022-12-19T05:59:01.026Z,26.57
2022-12-19T06:01:28.413Z,25.57
2022-12-19T06:03:55.891Z,24.80
2022-12-19T06:06:25.134Z,27.10
2022-12-19T06:08:56.087Z,25.63
2022-12-19T06:11:23.414Z,23.33
2022-12-19T06:13:50.546Z,34.27
2022-12-19T06:16:20.471Z,25.87
2022-12-19T06:18:47.480Z,27.37
2022-12-19T06:21:14.593Z,26.53
2022-12-19T06:23:41.838Z,25.23
2022-12-19T06:26:16.864Z,28.50
2022-12-19T06:28:46.363Z,26.70
2022-12-19T06:31:13.949Z,24.83
2022-12-19T06:33:41.111Z,29.67
2022-12-19T06:36:12.183Z,24.30
2022-12-19T06:38:39.228Z,33.73
2022-12-19T06:41:25.261Z,28.33
2022-12-19T06:43:53.843Z,23.43
2022-12-19T06:46:20.891Z,26.27
2022-12-19T06:48:48.095Z,22.57
2022-12-19T06:51:15.558Z,26.70
2022-12-19T06:53:42.682Z,31.30
2022-12-19T06:56:10.891Z,26.30
2022-12-19T06:58:38.228Z,25.40
2022-12-19T07:01:05.559Z,24.10
2022-12-19T07:03:41.729Z,28.53
2022-12-19T07:06:08.909Z,25.37
2022-12-19T07:08:35.977Z,24.37
2022-12-19T07:11:03.152Z,24.37
2022-12-19T07:13:30.252Z,25.57
2022-12-19T07:16:01.310Z,28.03
2022-12-19T07:18:30.373Z,30.43
2022-12-19T07:20:57.453Z,26.57
2022-12-19T07:23:24.661Z,27.17
2022-12-19T07:25:51.876Z,25.57
2022-12-19T07:28:19.069Z,24.97
2022-12-19T07:30:46.198Z,24.23
2022-12-19T07:33:19.733Z,24.37
2022-12-19T07:35:48.451Z,21.37
2022-12-19T07:38:15.189Z,25.30
2022-12-19T07:40:42.396Z,24.17
2022-12-19T07:43:09.553Z,24.17
2022-12-19T07:45:38.306Z,22.07
2022-12-19T07:48:06.838Z,21.33
2022-12-19T07:50:34.431Z,22.50
2022-12-19T07:53:01.692Z,19.47
2022-12-19T07:55:28.878Z,22.87
2022-12-19T07:57:55.985Z,18.93
2022-12-19T08:00:23.157Z,22.83
2022-12-19T08:02:49.974Z,18.57
2022-12-19T08:05:17.176Z,17.93
2022-12-19T08:07:44.254Z,20.97
2022-12-19T08:10:12.561Z,17.43
2022-12-19T08:12:39.329Z,15.37
2022-12-19T08:15:07.172Z,17.93
2022-12-19T08:17:35.758Z,19.53
2022-12-19T08:20:02.523Z,14.57
2022-12-19T08:22:30.348Z,16.03
2022-12-19T08:24:57.836Z,17.87
2022-12-19T08:27:25.035Z,16.40
2022-12-19T08:29:52.233Z,12.47
2022-12-19T08:32:21.603Z,13.77
2022-12-19T08:34:49.917Z,12.97
2022-12-19T08:37:17.197Z,14.83
2022-12-19T08:39:44.279Z,12.30
2022-12-19T08:42:11.404Z,14.03
2022-12-19T08:44:38.519Z,13.00
2022-12-19T08:47:05.315Z,10.93
2022-12-19T08:49:32.479Z,11.10
2022-12-19T08:51:59.623Z,13.57
2022-12-19T08:54:27.085Z,12.27
2022-12-19T08:56:54.193Z,11.33
2022-12-19T08:59:30.792Z,10.20
2022-12-19T09:01:58.896Z,9.40
2022-12-19T09:05:57.962Z,8.80
2022-12-19T09:07:15.703Z,10.57
2022-12-19T09:09:43.508Z,10.27
2022-12-19T09:12:10.213Z,12.17
2022-12-19T09:14:37.879Z,9.70
2022-12-19T09:17:05.069Z,11.23
2022-12-19T09:19:32.305Z,7.40
2022-12-19T09:21:59.476Z,8.33
2022-12-19T09:24:26.664Z,8.70
2022-12-19T09:26:53.730Z,8.10
2022-12-19T09:29:21.932Z,10.50
2022-12-19T09:31:56.292Z,11.43
2022-12-19T09:34:27.421Z,9.50
2022-12-19T09:37:06.527Z,10.30
2022-12-19T09:39:34.338Z,10.97
2022-12-19T09:42:07.033Z,7.90
2022-12-19T09:44:34.167Z,7.27
2022-12-19T09:47:14.103Z,7.83
2022-12-19T09:49:43.489Z,9.73
2022-12-19T09:52:33.212Z,9.03
2022-12-19T09:55:16.793Z,7.87
2022-12-19T09:58:16.201Z,10.83
2022-12-19T10:00:56.462Z,7.80
2022-12-19T10:03:43.558Z,7.13
2022-12-19T10:07:22.357Z,6.97
2022-12-19T10:10:39.966Z,5.80
2022-12-19T10:12:48.260Z,7.80
2022-12-19T10:15:47.886Z,6.83
2022-12-19T10:18:52.683Z,8.57
2022-12-19T10:22:08.106Z,7.67
2022-12-19T10:25:09.439Z,6.60
2022-12-19T10:27:58.726Z,6.17
2022-12-19T10:30:31.696Z,10.30
2022-12-19T10:32:59.815Z,9.90
2022-12-19T10:35:43.705Z,14.33
2022-12-19T10:38:28.481Z,7.90
2022-12-19T10:41:10.302Z,10.17
2022-12-19T10:43:44.044Z,8.70
2022-12-19T10:46:20.037Z,6.90
2022-12-19T10:48:50.478Z,8.23
2022-12-19T10:51:23.919Z,8.03
2022-12-19T10:53:57.157Z,8.77
2022-12-19T10:56:33.173Z,9.67
2022-12-19T10:59:04.889Z,10.20
2022-12-19T11:01:38.919Z,11.23
2022-12-19T11:04:24.531Z,8.33
2022-12-19T11:07:03.904Z,8.73
2022-12-19T11:09:41.725Z,8.77
2022-12-19T11:16:38.387Z,10.77
2022-12-19T11:18:55.574Z,12.87
2022-12-19T11:26:14.588Z,11.33
2022-12-19T11:30:05.776Z,9.37
2022-12-19T11:30:36.479Z,12.00
2022-12-19T11:30:45.320Z,11.23
2022-12-19T11:32:42.098Z,11.97
2022-12-19T11:35:21.015Z,13.10
2022-12-19T11:37:55.569Z,13.00
2022-12-19T11:40:36.466Z,18.67
2022-12-19T11:46:40.364Z,12.87
2022-12-19T11:49:16.185Z,14.13
2022-12-19T11:51:55.909Z,12.50
2022-12-19T11:54:30.305Z,14.00
2022-12-19T11:56:57.894Z,16.70
2022-12-19T11:59:38.092Z,16.00
2022-12-19T12:02:07.815Z,16.20
2022-12-19T12:05:28.560Z,14.00
2022-12-19T12:09:52.650Z,15.53
2022-12-19T12:19:39.222Z,12.87
2022-12-19T12:24:15.841Z,18.57
2022-12-19T12:28:10.677Z,15.87
2022-12-19T12:31:31.737Z,16.50
2022-12-19T12:31:42.779Z,15.67
2022-12-19T12:31:49.677Z,16.50
2022-12-19T12:31:58.101Z,16.87
2022-12-19T12:35:46.568Z,18.73
2022-12-19T12:38:27.022Z,15.47
2022-12-19T12:41:49.471Z,18.80
2022-12-19T12:44:16.552Z,17.67
2022-12-19T12:46:49.655Z,18.50
2022-12-19T12:49:37.358Z,16.97
2022-12-19T12:52:07.922Z,16.30
2022-12-19T12:54:39.075Z,16.63
2022-12-19T12:57:06.246Z,16.90
2022-12-19T12:59:33.393Z,16.53
2022-12-19T13:02:11.667Z,21.30
2022-12-19T13:04:58.897Z,16.57
2022-12-19T13:07:41.281Z,19.77
2022-12-19T13:10:23.304Z,19.57
2022-12-19T13:13:14.475Z,19.43
2022-12-19T13:15:45.751Z,18.03
2022-12-19T13:18:12.851Z,21.03
2022-12-19T13:20:45.600Z,20.60
2022-12-19T13:23:41.515Z,25.80
2022-12-19T13:26:45.090Z,21.93
2022-12-19T13:29:30.413Z,20.93
2022-12-19T13:32:15.255Z,18.53
2022-12-19T13:34:58.225Z,18.70
2022-12-19T13:39:49.403Z,17.37
2022-12-19T13:40:33.126Z,15.30
2022-12-19T13:43:41.262Z,21.60
2022-12-19T13:46:26.851Z,22.10
2022-12-19T13:49:12.288Z,18.17
2022-12-19T13:51:52.189Z,17.77
2022-12-19T13:54:34.621Z,18.90
2022-12-19T13:57:08.201Z,16.70
2022-12-19T13:59:39.606Z,15.87
2022-12-19T14:02:16.248Z,17.40
2022-12-19T14:04:44.457Z,17.93
2022-12-19T14:07:39.317Z,18.20
2022-12-19T14:11:37.895Z,19.57
2022-12-19T14:13:48.719Z,15.40
2022-12-19T14:16:39.738Z,15.77
2022-12-19T14:19:27.014Z,15.23
2022-12-19T14:22:11.238Z,16.80
2022-12-19T14:24:52.692Z,14.87
2022-12-19T14:28:18.230Z,15.37
2022-12-19T14:30:28.055Z,14.67
2022-12-19T14:33:43.820Z,17.23
2022-12-19T14:36:10.478Z,13.70
2022-12-19T14:39:25.485Z,18.23
2022-12-19T14:41:54.620Z,17.03
2022-12-19T14:52:08.478Z,15.80
2022-12-19T14:53:34.380Z,14.17
2022-12-19T14:54:23.585Z,15.33
2022-12-19T14:54:23.895Z,15.93
2022-12-19T14:56:12.964Z,16.20
2022-12-19T14:58:53.401Z,14.60
2022-12-19T15:01:29.598Z,16.57
2022-12-19T15:04:52.946Z,18.90
2022-12-19T15:07:07.808Z,17.73
2022-12-19T15:11:03.011Z,15.20
2022-12-19T15:14:47.271Z,13.27
2022-12-19T15:16:01.885Z,14.60
2022-12-19T15:18:41.094Z,13.00
2022-12-19T15:21:14.695Z,11.07
2022-12-19T15:23:42.073Z,15.93
2022-12-19T15:26:17.112Z,15.07
2022-12-19T15:28:48.090Z,16.40
2022-12-19T15:31:38.458Z,11.60
2022-12-19T15:37:16.973Z,14.77
2022-12-19T15:39:44.945Z,16.30
2022-12-19T15:42:22.605Z,15.73
2022-12-19T15:44:51.697Z,12.47
2022-12-19T15:47:24.806Z,12.13
2022-12-19T15:49:51.456Z,12.43
2022-12-19T15:52:19.701Z,15.17
2022-12-19T15:54:48.397Z,12.70
2022-12-19T15:57:38.327Z,13.40
2022-12-19T16:00:18.391Z,16.07
2022-12-19T16:05:33.122Z,13.13
2022-12-19T16:08:00.398Z,13.60
2022-12-19T16:10:27.564Z,15.63
2022-12-19T16:12:58.177Z,16.73
2022-12-19T16:15:33.851Z,14.03
2022-12-19T16:18:02.992Z,11.07
2022-12-19T16:20:39.241Z,13.83
2022-12-19T16:23:06.635Z,15.53
2022-12-19T16:25:39.650Z,15.10
2022-12-19T16:28:14.503Z,12.23
2022-12-19T16:30:43.362Z,15.30
2022-12-19T16:33:30.008Z,11.47
2022-12-19T16:36:06.230Z,13.17
2022-12-19T16:38:33.942Z,15.57
2022-12-19T16:41:01.689Z,14.17
2022-12-19T16:43:33.626Z,16.30
2022-12-19T16:46:01.940Z,16.83
2022-12-19T16:48:29.802Z,16.60
2022-12-19T16:50:58.809Z,16.43
2022-12-19T16:53:25.988Z,13.93
2022-12-19T16:55:55.497Z,15.90
2022-12-19T16:58:25.057Z,11.87
2022-12-19T17:00:54.770Z,14.20
2022-12-19T17:03:41.336Z,14.10
2022-12-19T17:06:16.353Z,15.37
2022-12-19T17:08:43.880Z,16.40
2022-12-19T17:11:20.687Z,14.77
2022-12-19T17:14:08.457Z,17.60
2022-12-19T17:16:35.667Z,13.63
2022-12-19T17:19:02.929Z,11.80
2022-12-19T17:21:29.833Z,15.47
2022-12-19T17:23:56.895Z,15.73
2022-12-19T17:26:23.977Z,14.60
2022-12-19T17:28:51.084Z,13.63
2022-12-19T17:31:27.923Z,13.27
2022-12-19T17:33:57.610Z,14.80
2022-12-19T17:36:32.684Z,13.50
2022-12-19T17:39:02.324Z,14.93
2022-12-19T17:41:30.353Z,12.77
2022-12-19T17:43:57.761Z,15.30
2022-12-19T17:46:24.755Z,15.13
2022-12-19T17:48:53.009Z,17.63
2022-12-19T17:51:21.623Z,13.20
2022-12-19T17:53:49.725Z,15.03
2022-12-19T17:56:18.628Z,13.17
2022-12-19T17:58:46.033Z,12.57
2022-12-19T18:01:23.525Z,13.67
2022-12-19T18:03:52.226Z,13.80
2022-12-19T18:06:19.604Z,15.40
2022-12-19T18:08:46.725Z,14.90
2022-12-19T18:11:24.686Z,12.33
2022-12-19T18:13:52.388Z,13.37
2022-12-19T18:16:24.518Z,11.47
2022-12-19T18:18:51.658Z,14.17
2022-12-19T18:21:22.198Z,14.17
2022-12-19T18:23:49.014Z,14.57
2022-12-19T18:26:16.119Z,10.87
2022-12-19T18:28:43.221Z,13.00
2022-12-19T18:31:16.382Z,15.47
2022-12-19T18:33:46.544Z,14.17
2022-12-19T18:36:25.021Z,14.27
2022-12-19T18:38:52.766Z,11.23
2022-12-19T18:41:20.740Z,14.07
2022-12-19T18:43:47.940Z,15.27
2022-12-19T18:46:17.183Z,16.50
2022-12-19T18:48:45.240Z,20.83
2022-12-19T18:51:17.368Z,13.80
2022-12-19T18:53:45.381Z,18.00
2022-12-19T18:56:12.398Z,15.67
2022-12-19T18:58:39.274Z,15.00
2022-12-19T19:01:11.590Z,18.13
2022-12-19T19:03:39.766Z,15.67
2022-12-19T19:06:17.936Z,15.33
2022-12-19T19:08:45.012Z,13.97
2022-12-19T19:11:30.847Z,14.87
2022-12-19T19:13:57.911Z,14.43
2022-12-19T19:16:27.005Z,16.77
2022-12-19T19:18:56.028Z,12.53
2022-12-19T19:21:29.460Z,12.10
2022-12-19T19:24:03.734Z,13.53
2022-12-19T19:26:30.784Z,11.43
2022-12-19T19:28:58.763Z,11.40
2022-12-19T19:31:27.839Z,12.80
2022-12-19T19:34:03.023Z,12.03
2022-12-19T19:36:33.006Z,10.83
2022-12-19T19:39:00.128Z,17.23
2022-12-19T19:41:29.788Z,11.73
2022-12-19T19:43:58.592Z,13.77
2022-12-19T19:46:26.292Z,13.60
2022-12-19T19:48:53.383Z,11.70
2022-12-19T19:51:20.754Z,13.43
2022-12-19T19:53:47.901Z,12.70
2022-12-19T19:56:15.065Z,13.03
2022-12-19T19:58:42.219Z,13.30
2022-12-19T20:01:11.039Z,11.13
2022-12-19T20:03:39.894Z,14.32
2022-12-19T20:06:07.259Z,16.15
2022-12-19T20:08:39.598Z,16.93
2022-12-19T20:11:08.229Z,14.30
2022-12-19T20:13:35.277Z,11.23
2022-12-19T20:16:07.902Z,10.43
2022-12-19T20:18:35.780Z,11.20
2022-12-19T20:21:06.573Z,9.77
2022-12-19T20:23:36.566Z,9.77
2022-12-19T20:26:04.798Z,10.67
2022-12-19T20:28:32.140Z,10.70
2022-12-19T20:30:59.567Z,8.23
2022-12-19T20:33:26.880Z,10.93
2022-12-19T20:35:58.386Z,10.17
2022-12-19T20:38:25.259Z,9.97
2022-12-19T20:40:55.603Z,14.67
2022-12-19T20:43:23.414Z,7.97
2022-12-19T20:45:50.595Z,7.90
2022-12-19T20:48:18.311Z,8.47
2022-12-19T20:50:45.405Z,8.20
2022-12-19T20:53:12.466Z,7.90
2022-12-19T20:55:39.539Z,9.30
2022-12-19T20:58:06.575Z,7.67
2022-12-19T21:00:33.663Z,7.33
2022-12-19T21:03:27.270Z,7.23
2022-12-19T21:05:54.997Z,8.03
2022-12-19T21:08:22.770Z,8.03
2022-12-19T21:10:49.452Z,7.63
2022-12-19T21:13:16.593Z,8.90
2022-12-19T21:15:43.819Z,7.60
2022-12-19T21:18:10.804Z,11.10
2022-12-19T21:20:38.055Z,7.10
2022-12-19T21:23:05.296Z,8.53
2022-12-19T21:25:32.472Z,7.40
2022-12-19T21:27:59.550Z,8.27
2022-12-19T21:30:26.240Z,6.27
2022-12-19T21:32:52.930Z,7.40
2022-12-19T21:35:20.043Z,9.80
2022-12-19T21:37:51.095Z,11.17
2022-12-19T21:40:21.571Z,9.33
2022-12-19T21:42:48.638Z,10.90
2022-12-19T21:45:16.114Z,7.63
2022-12-19T21:47:43.247Z,10.53
2022-12-19T21:50:12.593Z,8.67
2022-12-19T21:52:40.125Z,11.03
2022-12-19T21:55:08.366Z,10.37
2022-12-19T21:57:41.772Z,8.70
2022-12-19T22:00:10.797Z,9.43
2022-12-19T22:02:38.277Z,7.97
2022-12-19T22:05:06.459Z,9.53
2022-12-19T22:07:33.264Z,8.77
2022-12-19T22:10:00.743Z,11.30
2022-12-19T22:12:27.809Z,9.10
2022-12-19T22:14:54.867Z,7.60
2022-12-19T22:17:21.937Z,9.03
2022-12-19T22:19:48.535Z,7.57
2022-12-19T22:22:15.653Z,8.60
2022-12-19T22:24:42.733Z,9.17
2022-12-19T22:27:09.843Z,7.10
2022-12-19T22:29:37.311Z,8.17
2022-12-19T22:32:04.599Z,9.77
2022-12-19T22:34:31.812Z,7.83
2022-12-19T22:36:58.988Z,10.83
2022-12-19T22:39:26.122Z,7.07
2022-12-19T22:41:53.240Z,11.87
2022-12-19T22:44:24.405Z,10.63
2022-12-19T22:46:51.882Z,12.70
2022-12-19T22:49:18.701Z,9.77
2022-12-19T22:51:45.493Z,8.20
2022-12-19T22:54:12.712Z,7.63
2022-12-19T22:56:40.133Z,12.40
2022-12-19T22:59:08.449Z,11.70
2022-12-19T23:01:38.254Z,12.40
2022-12-19T23:04:06.707Z,17.13
2022-12-19T23:06:35.297Z,7.00
2022-12-19T23:09:02.815Z,9.17
2022-12-19T23:11:34.244Z,9.50
2022-12-19T23:14:02.733Z,10.23
2022-12-19T23:16:30.182Z,8.73
2022-12-19T23:18:57.533Z,7.33
2022-12-19T23:21:25.321Z,8.50
2022-12-19T23:23:54.110Z,8.67
2022-12-19T23:26:27.406Z,7.77
2022-12-19T23:29:10.941Z,8.37
2022-12-19T23:31:40.699Z,9.37
2022-12-19T23:34:07.859Z,9.67
2022-12-19T23:39:22.006Z,8.83
2022-12-19T23:41:49.104Z,8.10
2022-12-19T23:44:16.483Z,7.17
2022-12-19T23:46:43.580Z,9.80
2022-12-19T23:49:10.645Z,9.60
2022-12-19T23:51:37.873Z,8.23
2022-12-19T23:54:05.118Z,7.77
2022-12-19T23:56:32.442Z,9.87
2022-12-19T23:58:59.724Z,8.23
